ETH361 HAAB-FSIA
Flight info
| Callsign | ETH361 |
|---|---|
| Flight time | N/A |
| Altitude | 39000 |
| Route | IMKIT3A IMKIT Q555 MAV UM313 MOGUD DCT ROUTY ROUTY1D |
| Aircraft | B77L/H-SDE1E2E3FGHIJ2J3J4J5M1RWXY/LB1D1 |
Departure
| Time | N/A |
|---|---|
| Airport | Addis Ababa Bole International Airport (HAAB) |
Arrival
| Time | 2026-04-30 20:21 |
|---|---|
| Airport | Seychelles International Airport (FSIA) |
| Time | Latitude | Longitude | Altitude | Speed | Heading |
|---|---|---|---|---|---|
| 2026-04-30 18:42 | 1.26620 | 46.53605 | 36875 ft | 474 kts | 119° |
| 2026-04-30 18:42 | 1.24930 | 46.56438 | 36875 ft | 474 kts | 119° |
| 2026-04-30 18:45 | 1.07651 | 46.85407 | 36874 ft | 495 kts | 119° |
| 2026-04-30 18:45 | 1.05889 | 46.88360 | 36873 ft | 494 kts | 119° |
| 2026-04-30 18:46 | 1.02372 | 46.94256 | 36874 ft | 494 kts | 119° |
| 2026-04-30 18:46 | 0.98856 | 47.00148 | 36874 ft | 494 kts | 119° |
| 2026-04-30 18:47 | 0.95338 | 47.06045 | 36875 ft | 494 kts | 119° |
| 2026-04-30 18:47 | 0.91839 | 47.11909 | 36874 ft | 494 kts | 119° |
| 2026-04-30 18:48 | 0.88328 | 47.17795 | 36874 ft | 493 kts | 119° |
| 2026-04-30 18:48 | 0.84816 | 47.23682 | 36874 ft | 493 kts | 119° |
| 2026-04-30 18:49 | 0.81312 | 47.29554 | 36874 ft | 493 kts | 119° |
| 2026-04-30 18:49 | 0.77821 | 47.35404 | 36874 ft | 492 kts | 119° |
| 2026-04-30 18:50 | 0.74287 | 47.41317 | 36875 ft | 492 kts | 119° |
| 2026-04-30 18:50 | 0.70748 | 47.47106 | 36873 ft | 492 kts | 120° |
| 2026-04-30 18:51 | 0.67176 | 47.52946 | 36874 ft | 492 kts | 120° |
| 2026-04-30 18:51 | 0.63617 | 47.58771 | 36874 ft | 492 kts | 119° |
| 2026-04-30 18:52 | 0.60057 | 47.64598 | 36874 ft | 491 kts | 119° |
| 2026-04-30 18:52 | 0.56492 | 47.70437 | 36874 ft | 491 kts | 119° |
| 2026-04-30 18:53 | 0.52934 | 47.76264 | 36874 ft | 491 kts | 119° |
| 2026-04-30 18:53 | 0.49410 | 47.82035 | 36874 ft | 491 kts | 119° |
| 2026-04-30 18:54 | 0.45852 | 47.87862 | 36874 ft | 490 kts | 119° |
| 2026-04-30 18:54 | 0.42299 | 47.93681 | 36874 ft | 490 kts | 119° |
| 2026-04-30 18:55 | 0.38754 | 47.99485 | 36874 ft | 490 kts | 119° |
| 2026-04-30 18:55 | 0.33422 | 48.08217 | 36874 ft | 490 kts | 119° |
| 2026-04-30 18:56 | 0.28107 | 48.16922 | 36874 ft | 490 kts | 119° |
| 2026-04-30 18:57 | 0.22807 | 48.25600 | 36874 ft | 490 kts | 119° |
| 2026-04-30 18:57 | 0.19262 | 48.31404 | 36874 ft | 490 kts | 119° |
| 2026-04-30 18:58 | 0.13938 | 48.40112 | 36874 ft | 490 kts | 119° |
| 2026-04-30 18:59 | 0.08606 | 48.48834 | 36875 ft | 491 kts | 119° |
| 2026-04-30 19:00 | 0.01494 | 48.60472 | 36875 ft | 490 kts | 119° |
| 2026-04-30 19:01 | -0.05586 | 48.72058 | 36875 ft | 491 kts | 119° |
| 2026-04-30 19:02 | -0.10923 | 48.80792 | 36876 ft | 491 kts | 119° |
| 2026-04-30 19:03 | -0.18035 | 48.92430 | 36876 ft | 491 kts | 119° |
| 2026-04-30 19:04 | -0.25159 | 49.04089 | 36876 ft | 491 kts | 119° |
| 2026-04-30 19:05 | -0.32263 | 49.15714 | 36877 ft | 492 kts | 119° |
| 2026-04-30 19:06 | -0.39391 | 49.27379 | 36888 ft | 492 kts | 119° |
| 2026-04-30 19:06 | -0.44745 | 49.36142 | 36889 ft | 492 kts | 119° |
| 2026-04-30 19:07 | -0.50089 | 49.44888 | 36890 ft | 492 kts | 119° |
| 2026-04-30 19:08 | -0.57211 | 49.56546 | 36891 ft | 491 kts | 118° |
| 2026-04-30 19:09 | -0.62525 | 49.65245 | 36891 ft | 492 kts | 118° |
| 2026-04-30 19:09 | -0.66094 | 49.71087 | 36891 ft | 492 kts | 118° |
| 2026-04-30 19:10 | -0.73217 | 49.82747 | 36893 ft | 492 kts | 118° |
| 2026-04-30 19:11 | -0.78572 | 49.91514 | 36893 ft | 493 kts | 119° |
| 2026-04-30 19:12 | -0.82116 | 49.97316 | 36894 ft | 493 kts | 118° |
| 2026-04-30 19:12 | -0.85689 | 50.03167 | 36894 ft | 493 kts | 118° |
| 2026-04-30 19:13 | -0.92810 | 50.14825 | 36895 ft | 493 kts | 118° |
| 2026-04-30 19:14 | -0.96380 | 50.20672 | 36896 ft | 494 kts | 118° |
| 2026-04-30 19:14 | -0.99957 | 50.26530 | 36897 ft | 494 kts | 118° |
| 2026-04-30 19:15 | -1.03540 | 50.32397 | 36897 ft | 494 kts | 118° |
| 2026-04-30 19:15 | -1.08904 | 50.41182 | 36897 ft | 494 kts | 118° |
| 2026-04-30 19:16 | -1.12466 | 50.47017 | 36899 ft | 494 kts | 118° |
| 2026-04-30 19:17 | -1.17830 | 50.55803 | 36899 ft | 495 kts | 118° |
| 2026-04-30 19:17 | -1.23210 | 50.64618 | 36900 ft | 494 kts | 118° |
| 2026-04-30 19:18 | -1.28553 | 50.73371 | 36901 ft | 494 kts | 118° |
| 2026-04-30 19:19 | -1.32132 | 50.79234 | 36902 ft | 494 kts | 118° |
| 2026-04-30 19:19 | -1.37499 | 50.88031 | 36903 ft | 494 kts | 118° |
| 2026-04-30 19:20 | -1.41078 | 50.93897 | 36903 ft | 494 kts | 118° |
| 2026-04-30 19:21 | -1.46427 | 51.02663 | 36904 ft | 495 kts | 118° |
| 2026-04-30 19:22 | -1.53566 | 51.14372 | 36906 ft | 494 kts | 118° |
| 2026-04-30 19:23 | -1.64284 | 51.31960 | 36907 ft | 494 kts | 118° |
| 2026-04-30 19:24 | -1.69627 | 51.40725 | 36908 ft | 494 kts | 118° |
| 2026-04-30 19:25 | -1.78556 | 51.55382 | 36910 ft | 494 kts | 118° |
| 2026-04-30 19:26 | -1.85663 | 51.67049 | 36908 ft | 494 kts | 118° |
| 2026-04-30 19:27 | -1.91016 | 51.75840 | 36919 ft | 494 kts | 118° |
| 2026-04-30 19:27 | -1.94564 | 51.81665 | 36999 ft | 478 kts | 117° |
| 2026-04-30 19:28 | -1.96230 | 51.84401 | 37498 ft | 455 kts | 117° |
| 2026-04-30 19:28 | -1.99483 | 51.89745 | 37031 ft | 447 kts | 117° |
| 2026-04-30 19:29 | -2.02670 | 51.94979 | 36925 ft | 436 kts | 117° |
| 2026-04-30 19:30 | -2.08819 | 52.05081 | 36920 ft | 416 kts | 117° |
| 2026-04-30 19:31 | -2.14699 | 52.14743 | 36920 ft | 402 kts | 117° |
| 2026-04-30 19:31 | -2.19011 | 52.21831 | 36921 ft | 393 kts | 117° |
| 2026-04-30 19:32 | -2.21840 | 52.26480 | 36921 ft | 389 kts | 117° |
| 2026-04-30 19:32 | -2.24637 | 52.31078 | 36921 ft | 385 kts | 117° |
| 2026-04-30 19:33 | -2.27394 | 52.35610 | 36922 ft | 381 kts | 117° |
| 2026-04-30 19:33 | -2.30128 | 52.40105 | 36923 ft | 378 kts | 117° |
| 2026-04-30 19:34 | -2.32846 | 52.44574 | 36923 ft | 375 kts | 117° |
| 2026-04-30 19:35 | -2.36896 | 52.51234 | 36924 ft | 371 kts | 117° |
| 2026-04-30 19:35 | -2.39567 | 52.55627 | 36924 ft | 369 kts | 117° |
| 2026-04-30 19:36 | -2.42230 | 52.60005 | 36923 ft | 367 kts | 117° |
| 2026-04-30 19:36 | -2.46194 | 52.66526 | 36925 ft | 364 kts | 117° |
| 2026-04-30 19:37 | -2.48819 | 52.70845 | 36925 ft | 363 kts | 117° |
| 2026-04-30 19:37 | -2.51430 | 52.75142 | 36925 ft | 361 kts | 117° |
| 2026-04-30 19:38 | -2.54033 | 52.79427 | 36926 ft | 360 kts | 117° |
| 2026-04-30 19:38 | -2.56628 | 52.83697 | 36926 ft | 358 kts | 117° |
| 2026-04-30 19:39 | -2.59208 | 52.87913 | 36927 ft | 357 kts | 117° |
| 2026-04-30 19:39 | -2.61806 | 52.92137 | 36926 ft | 356 kts | 117° |
| 2026-04-30 19:40 | -2.64399 | 52.96354 | 36927 ft | 355 kts | 117° |
| 2026-04-30 19:40 | -2.66982 | 53.00557 | 36927 ft | 354 kts | 117° |
| 2026-04-30 19:41 | -2.69557 | 53.04747 | 36927 ft | 353 kts | 117° |
| 2026-04-30 19:41 | -2.72127 | 53.08931 | 36928 ft | 352 kts | 117° |
| 2026-04-30 19:42 | -2.74689 | 53.13102 | 36928 ft | 352 kts | 117° |
| 2026-04-30 19:42 | -2.77247 | 53.17262 | 36928 ft | 351 kts | 117° |
| 2026-04-30 19:43 | -2.79781 | 53.21385 | 36928 ft | 350 kts | 117° |
| 2026-04-30 19:44 | -2.83604 | 53.27607 | 36929 ft | 349 kts | 117° |
| 2026-04-30 19:44 | -2.86141 | 53.31736 | 36929 ft | 349 kts | 117° |
| 2026-04-30 19:45 | -2.88681 | 53.35872 | 36929 ft | 348 kts | 117° |
| 2026-04-30 19:45 | -2.91212 | 53.39995 | 36931 ft | 348 kts | 117° |
| 2026-04-30 19:46 | -2.93743 | 53.44117 | 36931 ft | 347 kts | 117° |
| 2026-04-30 19:46 | -2.96245 | 53.48192 | 36931 ft | 347 kts | 117° |
| 2026-04-30 19:47 | -2.98767 | 53.52301 | 36931 ft | 346 kts | 117° |
| 2026-04-30 19:47 | -3.01290 | 53.56412 | 36932 ft | 346 kts | 117° |
| 2026-04-30 19:48 | -3.03807 | 53.60514 | 36932 ft | 345 kts | 117° |
| 2026-04-30 19:48 | -3.06319 | 53.64606 | 36932 ft | 345 kts | 117° |
| 2026-04-30 19:49 | -3.08816 | 53.68677 | 36827 ft | 347 kts | 117° |
| 2026-04-30 19:49 | -3.11335 | 53.72783 | 36503 ft | 353 kts | 117° |
| 2026-04-30 19:49 | -3.12195 | 53.74184 | 36072 ft | 358 kts | 117° |
| 2026-04-30 19:50 | -3.13960 | 53.77061 | 34862 ft | 369 kts | 117° |
| 2026-04-30 19:50 | -3.14872 | 53.78549 | 34107 ft | 377 kts | 117° |
| 2026-04-30 19:50 | -3.16735 | 53.81585 | 32397 ft | 395 kts | 118° |
| 2026-04-30 19:50 | -3.18193 | 53.83964 | 30980 ft | 409 kts | 119° |
| 2026-04-30 19:51 | -3.19190 | 53.85589 | 30138 ft | 413 kts | 119° |
| 2026-04-30 19:51 | -3.20694 | 53.88041 | 29069 ft | 414 kts | 120° |
| 2026-04-30 19:51 | -3.22696 | 53.91306 | 27904 ft | 407 kts | 120° |
| 2026-04-30 19:51 | -3.24160 | 53.93694 | 27112 ft | 401 kts | 120° |
| 2026-04-30 19:52 | -3.25123 | 53.95265 | 26544 ft | 399 kts | 120° |
| 2026-04-30 19:52 | -3.26567 | 53.97620 | 25658 ft | 396 kts | 121° |
| 2026-04-30 19:52 | -3.28003 | 53.99962 | 24794 ft | 393 kts | 121° |
| 2026-04-30 19:52 | -3.29430 | 54.02291 | 23956 ft | 389 kts | 121° |
| 2026-04-30 19:53 | -3.31286 | 54.05319 | 22949 ft | 383 kts | 121° |
| 2026-04-30 19:53 | -3.32219 | 54.06841 | 22469 ft | 378 kts | 121° |
| 2026-04-30 19:53 | -3.33572 | 54.09048 | 21749 ft | 373 kts | 122° |
| 2026-04-30 19:53 | -3.34918 | 54.11244 | 21018 ft | 374 kts | 122° |
| 2026-04-30 19:54 | -3.36331 | 54.13550 | 20689 ft | 394 kts | 122° |
| 2026-04-30 19:54 | -3.37712 | 54.15805 | 21021 ft | 359 kts | 122° |
| 2026-04-30 19:54 | -3.39001 | 54.17908 | 20479 ft | 353 kts | 122° |
| 2026-04-30 19:54 | -3.40303 | 54.20032 | 19895 ft | 365 kts | 122° |
| 2026-04-30 19:55 | -3.41633 | 54.22204 | 19683 ft | 366 kts | 122° |
| 2026-04-30 19:55 | -3.42961 | 54.24372 | 19605 ft | 363 kts | 122° |
| 2026-04-30 19:55 | -3.44269 | 54.26508 | 19358 ft | 360 kts | 122° |
| 2026-04-30 19:55 | -3.45577 | 54.28643 | 19122 ft | 358 kts | 122° |
| 2026-04-30 19:56 | -3.46871 | 54.30756 | 18874 ft | 354 kts | 122° |
| 2026-04-30 19:56 | -3.48150 | 54.32844 | 18503 ft | 351 kts | 122° |
| 2026-04-30 19:56 | -3.49421 | 54.34918 | 18072 ft | 350 kts | 122° |
| 2026-04-30 19:56 | -3.50673 | 54.36964 | 17675 ft | 348 kts | 122° |
| 2026-04-30 19:57 | -3.51934 | 54.39022 | 17253 ft | 347 kts | 123° |
| 2026-04-30 19:57 | -3.53193 | 54.41080 | 16978 ft | 345 kts | 123° |
| 2026-04-30 19:57 | -3.54445 | 54.43124 | 17078 ft | 346 kts | 123° |
| 2026-04-30 19:57 | -3.55705 | 54.45183 | 17105 ft | 346 kts | 123° |
| 2026-04-30 19:58 | -3.56964 | 54.47240 | 17101 ft | 346 kts | 123° |
| 2026-04-30 19:58 | -3.58215 | 54.49284 | 17099 ft | 346 kts | 123° |
| 2026-04-30 19:58 | -3.59475 | 54.51343 | 17100 ft | 346 kts | 123° |
| 2026-04-30 19:58 | -3.60719 | 54.53375 | 17102 ft | 346 kts | 122° |
| 2026-04-30 19:59 | -3.61971 | 54.55422 | 17099 ft | 346 kts | 123° |
| 2026-04-30 19:59 | -3.63230 | 54.57479 | 17100 ft | 346 kts | 123° |
| 2026-04-30 19:59 | -3.65740 | 54.61580 | 17100 ft | 346 kts | 123° |
| 2026-04-30 20:00 | -3.66993 | 54.63628 | 17008 ft | 340 kts | 123° |
| 2026-04-30 20:00 | -3.68219 | 54.65632 | 16584 ft | 335 kts | 123° |
| 2026-04-30 20:00 | -3.69429 | 54.67610 | 15893 ft | 332 kts | 123° |
| 2026-04-30 20:00 | -3.70619 | 54.69555 | 15482 ft | 331 kts | 123° |
| 2026-04-30 20:01 | -3.73055 | 54.73537 | 15759 ft | 339 kts | 123° |
| 2026-04-30 20:01 | -3.74287 | 54.75551 | 15801 ft | 340 kts | 123° |
| 2026-04-30 20:01 | -3.75519 | 54.77566 | 15783 ft | 340 kts | 123° |
| 2026-04-30 20:02 | -3.77991 | 54.81608 | 15784 ft | 340 kts | 123° |
| 2026-04-30 20:02 | -3.79223 | 54.83623 | 15781 ft | 341 kts | 123° |
| 2026-04-30 20:03 | -3.81723 | 54.87693 | 15785 ft | 342 kts | 122° |
| 2026-04-30 20:03 | -3.82957 | 54.89717 | 15785 ft | 340 kts | 123° |
| 2026-04-30 20:03 | -3.84170 | 54.91709 | 15782 ft | 340 kts | 123° |
| 2026-04-30 20:03 | -3.85403 | 54.93730 | 15785 ft | 339 kts | 122° |
| 2026-04-30 20:04 | -3.86633 | 54.95743 | 15785 ft | 340 kts | 123° |
| 2026-04-30 20:04 | -3.87864 | 54.97759 | 15784 ft | 340 kts | 122° |
| 2026-04-30 20:04 | -3.89089 | 54.99765 | 15784 ft | 340 kts | 123° |
| 2026-04-30 20:05 | -3.91562 | 55.03812 | 15787 ft | 338 kts | 123° |
| 2026-04-30 20:05 | -3.92790 | 55.05821 | 15783 ft | 339 kts | 123° |
| 2026-04-30 20:05 | -3.95254 | 55.09855 | 15785 ft | 340 kts | 123° |
| 2026-04-30 20:06 | -3.96472 | 55.11851 | 15783 ft | 340 kts | 123° |
| 2026-04-30 20:06 | -3.97692 | 55.13847 | 15767 ft | 334 kts | 123° |
| 2026-04-30 20:06 | -3.98878 | 55.15788 | 15548 ft | 318 kts | 123° |
| 2026-04-30 20:06 | -4.00013 | 55.17648 | 15109 ft | 308 kts | 123° |
| 2026-04-30 20:07 | -4.01120 | 55.19456 | 14545 ft | 301 kts | 122° |
| 2026-04-30 20:07 | -4.02213 | 55.21245 | 13892 ft | 298 kts | 122° |
| 2026-04-30 20:07 | -4.04350 | 55.24743 | 12605 ft | 292 kts | 122° |
| 2026-04-30 20:08 | -4.05390 | 55.26446 | 11949 ft | 290 kts | 122° |
| 2026-04-30 20:08 | -4.06437 | 55.28162 | 11345 ft | 286 kts | 122° |
| 2026-04-30 20:08 | -4.07472 | 55.29858 | 10686 ft | 284 kts | 122° |
| 2026-04-30 20:08 | -4.08497 | 55.31539 | 10025 ft | 283 kts | 122° |
| 2026-04-30 20:09 | -4.09512 | 55.33203 | 9600 ft | 273 kts | 122° |
| 2026-04-30 20:09 | -4.10481 | 55.34790 | 9377 ft | 268 kts | 122° |
| 2026-04-30 20:09 | -4.12428 | 55.37983 | 8865 ft | 274 kts | 122° |
| 2026-04-30 20:10 | -4.14420 | 55.41248 | 8324 ft | 269 kts | 122° |
| 2026-04-30 20:10 | -4.15378 | 55.42819 | 8002 ft | 263 kts | 122° |
| 2026-04-30 20:10 | -4.16360 | 55.44379 | 7603 ft | 264 kts | 125° |
| 2026-04-30 20:11 | -4.19376 | 55.46221 | 7210 ft | 267 kts | 167° |
| 2026-04-30 20:11 | -4.21230 | 55.46444 | 6990 ft | 268 kts | 176° |
| 2026-04-30 20:11 | -4.23071 | 55.46480 | 6940 ft | 268 kts | 180° |
| 2026-04-30 20:12 | -4.26805 | 55.46367 | 6936 ft | 270 kts | 181° |
| 2026-04-30 20:12 | -4.28685 | 55.46341 | 6935 ft | 270 kts | 180° |
| 2026-04-30 20:12 | -4.30567 | 55.46336 | 6932 ft | 269 kts | 179° |
| 2026-04-30 20:13 | -4.32411 | 55.46336 | 6755 ft | 263 kts | 179° |
| 2026-04-30 20:13 | -4.34225 | 55.46336 | 6443 ft | 254 kts | 179° |
| 2026-04-30 20:13 | -4.35932 | 55.46336 | 6100 ft | 245 kts | 179° |
| 2026-04-30 20:13 | -4.37615 | 55.46335 | 5704 ft | 238 kts | 179° |
| 2026-04-30 20:14 | -4.39254 | 55.46335 | 5278 ft | 234 kts | 179° |
| 2026-04-30 20:14 | -4.40864 | 55.46330 | 5066 ft | 231 kts | 180° |
| 2026-04-30 20:14 | -4.42443 | 55.46030 | 4928 ft | 234 kts | 199° |
| 2026-04-30 20:14 | -4.43727 | 55.45048 | 4905 ft | 234 kts | 225° |
| 2026-04-30 20:15 | -4.44635 | 55.43696 | 4933 ft | 236 kts | 238° |
| 2026-04-30 20:15 | -4.45441 | 55.42278 | 4928 ft | 237 kts | 238° |
| 2026-04-30 20:15 | -4.46324 | 55.40892 | 4861 ft | 233 kts | 235° |
| 2026-04-30 20:15 | -4.47445 | 55.39756 | 4497 ft | 228 kts | 213° |
| 2026-04-30 20:16 | -4.48891 | 55.39223 | 4058 ft | 223 kts | 192° |
| 2026-04-30 20:16 | -4.50426 | 55.39306 | 3663 ft | 213 kts | 164° |
| 2026-04-30 20:16 | -4.51597 | 55.40013 | 3486 ft | 190 kts | 145° |
| 2026-04-30 20:16 | -4.52575 | 55.40794 | 3307 ft | 169 kts | 141° |
| 2026-04-30 20:17 | -4.53562 | 55.41360 | 2848 ft | 165 kts | 154° |
| 2026-04-30 20:17 | -4.54666 | 55.41661 | 2441 ft | 161 kts | 162° |
| 2026-04-30 20:17 | -4.55743 | 55.41945 | 2331 ft | 163 kts | 167° |
| 2026-04-30 20:17 | -4.56898 | 55.42062 | 2439 ft | 172 kts | 176° |
| 2026-04-30 20:18 | -4.58138 | 55.42082 | 2236 ft | 188 kts | 180° |
| 2026-04-30 20:18 | -4.59368 | 55.42229 | 2220 ft | 174 kts | 168° |
| 2026-04-30 20:18 | -4.60466 | 55.42783 | 2333 ft | 180 kts | 142° |
| 2026-04-30 20:18 | -4.61335 | 55.43667 | 2768 ft | 176 kts | 136° |
| 2026-04-30 20:19 | -4.62119 | 55.44491 | 2793 ft | 157 kts | 132° |
| 2026-04-30 20:19 | -4.62730 | 55.45376 | 2460 ft | 151 kts | 124° |
| 2026-04-30 20:19 | -4.63336 | 55.46243 | 1824 ft | 156 kts | 125° |
| 2026-04-30 20:19 | -4.63891 | 55.47149 | 1338 ft | 149 kts | 125° |
| 2026-04-30 20:20 | -4.64522 | 55.48017 | 720 ft | 152 kts | 129° |
| 2026-04-30 20:20 | -4.65158 | 55.48824 | 432 ft | 143 kts | 126° |
| 2026-04-30 20:20 | -4.65602 | 55.49700 | 478 ft | 141 kts | 121° |
| 2026-04-30 20:20 | -4.66200 | 55.50444 | 347 ft | 134 kts | 127° |
| 2026-04-30 20:21 | -4.66741 | 55.51190 | 87 ft | 131 kts | 128° |
| 2026-04-30 20:21 | -4.67221 | 55.51829 | 25 ft | 91 kts | 120° |
| 2026-04-30 20:21 | -4.67434 | 55.52165 | 24 ft | 46 kts | 124° |
| 2026-04-30 20:21 | -4.67632 | 55.52445 | 24 ft | 55 kts | 126° |
| 2026-04-30 20:22 | -4.67845 | 55.52744 | 24 ft | 49 kts | 123° |
| 2026-04-30 20:22 | -4.68021 | 55.53001 | 24 ft | 41 kts | 126° |
| 2026-04-30 20:22 | -4.68130 | 55.53141 | 24 ft | 12 kts | 151° |
| 2026-04-30 20:22 | -4.68251 | 55.53171 | 24 ft | 17 kts | 146° |
| 2026-04-30 20:23 | -4.68247 | 55.53258 | 24 ft | 16 kts | 33° |
| 2026-04-30 20:23 | -4.68171 | 55.53223 | 24 ft | 25 kts | 303° |
| 2026-04-30 20:23 | -4.68040 | 55.53037 | 24 ft | 43 kts | 305° |
| 2026-04-30 20:23 | -4.67838 | 55.52736 | 24 ft | 60 kts | 302° |
| 2026-04-30 20:24 | -4.67572 | 55.52364 | 24 ft | 69 kts | 305° |
| 2026-04-30 20:24 | -4.67309 | 55.51977 | 24 ft | 63 kts | 303° |
| 2026-04-30 20:24 | -4.67089 | 55.51659 | 24 ft | 37 kts | 304° |
| 2026-04-30 20:24 | -4.66957 | 55.51462 | 24 ft | 25 kts | 304° |
| 2026-04-30 20:25 | -4.66936 | 55.51346 | 24 ft | 4 kts | 214° |
| 2026-04-30 20:25 | -4.66966 | 55.51326 | 24 ft | 13 kts | 212° |
| 2026-04-30 20:26 | -4.66999 | 55.51326 | 24 ft | 1 kts | 144° |
| 2026-04-30 20:26 | -4.67053 | 55.51399 | 24 ft | 2 kts | 127° |
| 2026-04-30 20:26 | -4.67077 | 55.51408 | 24 ft | 11 kts | 182° |
| 2026-04-30 20:27 | -4.67125 | 55.51382 | 24 ft | 0 kts | 213° |